Time;durP1;ratioP1;P1;durP2;ratioP2;P2;SDS_P1;SDS_P2;PMS_P1;PMS_P2;Temp;Humidity;BMP_temperature;BMP_pressure;BME280_temperature;BME280_humidity;BME280_pressure;Samples;Min_cycle;Max_cycle;Signal;HPM_P1;HPM_P2
2022/01/13 00:01:49;;;;;;;43.00;18.17;;;-12.90;99.90;;;;;;4994591;28;20192;-66
2022/01/13 00:04:16;;;;;;;42.23;17.70;;;-12.90;99.90;;;;;;4994289;28;20208;-66
2022/01/13 00:06:43;;;;;;;41.17;17.10;;;-12.90;99.90;;;;;;4994518;28;20239;-67
2022/01/13 00:09:10;;;;;;;43.93;17.90;;;-12.90;99.90;;;;;;4993982;28;20211;-67
2022/01/13 00:11:37;;;;;;;44.87;17.33;;;-13.00;99.90;;;;;;4993915;28;20203;-67
2022/01/13 00:14:26;;;;;;;40.93;17.63;;;-13.00;99.90;;;;;;4994448;28;20564;-66
2022/01/13 00:17:11;;;;;;;45.83;17.57;;;-13.00;99.90;;;;;;4993955;28;20242;-67
2022/01/13 00:19:56;;;;;;;41.77;18.20;;;-13.10;99.90;;;;;;4994194;28;20188;-67
2022/01/13 00:22:38;;;;;;;41.00;17.13;;;-13.10;99.90;;;;;;4994155;28;20619;-66
2022/01/13 00:25:09;;;;;;;39.87;17.63;;;-13.20;99.90;;;;;;4994160;28;20206;-67
2022/01/13 00:27:38;;;;;;;47.83;17.17;;;-13.10;99.90;;;;;;4994185;28;20191;-66
2022/01/13 00:30:14;;;;;;;40.90;16.27;;;-13.10;99.90;;;;;;4993989;28;20211;-66
2022/01/13 00:32:41;;;;;;;44.83;16.43;;;-13.10;99.90;;;;;;4994217;28;20199;-67
2022/01/13 00:35:09;;;;;;;44.00;17.47;;;-13.10;99.90;;;;;;4993582;28;20207;-67
2022/01/13 00:37:37;;;;;;;42.90;17.37;;;-13.10;99.90;;;;;;4993855;28;20209;-65
2022/01/13 00:40:05;;;;;;;42.40;16.87;;;-13.20;99.90;;;;;;4994059;28;20632;-66
2022/01/13 00:42:32;;;;;;;43.77;17.77;;;-13.10;99.90;;;;;;4993998;28;20234;-66
2022/01/13 00:45:00;;;;;;;38.23;16.67;;;-13.10;99.90;;;;;;4993662;28;20218;-66
2022/01/13 00:47:30;;;;;;;40.10;16.00;;;-13.20;99.90;;;;;;4993953;28;20207;-65
2022/01/13 00:49:57;;;;;;;36.23;15.93;;;-13.20;99.90;;;;;;4974469;28;20208;-64
2022/01/13 00:52:24;;;;;;;40.07;16.33;;;-13.20;99.90;;;;;;4974222;28;20208;-66
2022/01/13 00:54:51;;;;;;;36.47;15.77;;;-13.20;99.90;;;;;;4974077;28;20204;-66
2022/01/13 00:57:17;;;;;;;40.70;15.50;;;-13.20;99.90;;;;;;4974111;28;20208;-66
2022/01/13 00:59:44;;;;;;;38.53;15.57;;;-13.20;99.90;;;;;;4973649;28;20243;-66
2022/01/13 01:02:11;;;;;;;39.17;15.87;;;-13.20;99.90;;;;;;4973844;28;20562;-67
2022/01/13 01:04:39;;;;;;;35.37;15.73;;;-13.20;99.90;;;;;;4974037;28;20204;-66
2022/01/13 01:07:06;;;;;;;40.13;16.67;;;-13.20;99.90;;;;;;4973393;28;20236;-67
2022/01/13 01:09:39;;;;;;;37.67;15.13;;;-13.20;99.90;;;;;;4973413;28;20233;-66
2022/01/13 01:12:08;;;;;;;41.87;17.40;;;-13.30;99.90;;;;;;4973532;28;20197;-66
2022/01/13 01:14:39;;;;;;;43.53;17.13;;;-13.30;99.90;;;;;;4973605;28;20208;-66
2022/01/13 01:17:06;;;;;;;47.63;17.13;;;-13.30;99.90;;;;;;4973465;28;20235;-66
2022/01/13 01:19:36;;;;;;;41.87;16.00;;;-13.30;99.90;;;;;;4973630;28;20204;-68
2022/01/13 01:25:31;;;;;;;38.27;16.30;;;-13.30;99.90;;;;;;4951489;29;20201;-67
2022/01/13 01:28:00;;;;;;;34.47;16.20;;;-13.20;99.90;;;;;;4971401;28;20475;-66
2022/01/13 01:30:32;;;;;;;29.43;14.60;;;-13.20;99.90;;;;;;4986315;28;20259;-66
2022/01/13 01:32:59;;;;;;;31.33;14.67;;;-13.20;99.90;;;;;;4973450;28;20271;-65
2022/01/13 01:35:27;;;;;;;29.40;14.17;;;-13.10;99.90;;;;;;4983966;28;20656;-66
2022/01/13 01:37:56;;;;;;;29.03;13.77;;;-13.20;99.90;;;;;;4992703;28;20211;-66
2022/01/13 01:40:23;;;;;;;36.13;13.70;;;-13.10;99.90;;;;;;4992704;28;20259;-67
2022/01/13 01:42:50;;;;;;;37.97;15.00;;;-13.10;99.90;;;;;;4992594;28;20243;-68
2022/01/13 01:45:19;;;;;;;36.30;14.47;;;-13.10;99.90;;;;;;4991792;28;20207;-66
2022/01/13 01:47:50;;;;;;;39.07;15.20;;;-13.00;99.90;;;;;;4980151;28;20210;-66
2022/01/13 01:50:20;;;;;;;41.10;15.47;;;-13.00;99.90;;;;;;4983953;28;20333;-66
2022/01/13 01:52:48;;;;;;;45.57;16.00;;;-13.00;99.90;;;;;;4990928;28;20191;-66
2022/01/13 01:55:17;;;;;;;42.87;16.63;;;-13.00;99.90;;;;;;4990871;28;20204;-64
2022/01/13 01:57:45;;;;;;;38.90;15.77;;;-13.00;99.90;;;;;;4990816;28;20672;-66
2022/01/13 02:00:15;;;;;;;41.80;15.20;;;-12.90;99.90;;;;;;4992169;28;20242;-67
2022/01/13 02:02:44;;;;;;;43.23;17.13;;;-12.90;99.90;;;;;;4991904;28;20219;-67
2022/01/13 02:05:11;;;;;;;40.93;16.63;;;-12.90;99.90;;;;;;4989955;28;20656;-66
2022/01/13 02:07:38;;;;;;;36.13;16.20;;;-12.80;99.90;;;;;;4973110;28;20208;-66
2022/01/13 02:10:07;;;;;;;41.47;16.70;;;-12.80;99.90;;;;;;4973080;28;20215;-66
2022/01/13 02:12:39;;;;;;;40.70;16.37;;;-12.90;99.90;;;;;;4972930;28;20208;-67
2022/01/13 02:17:53;;;;;;;45.60;19.23;;;-12.90;99.90;;;;;;4972804;28;20263;-66
2022/01/13 02:20:22;;;;;;;45.20;17.57;;;-12.90;99.90;;;;;;4973961;28;20212;-65
2022/01/13 02:22:48;;;;;;;41.33;16.37;;;-12.90;99.90;;;;;;4976895;28;20220;-66
2022/01/13 02:25:16;;;;;;;47.30;18.53;;;-13.10;99.90;;;;;;4976840;28;20573;-66
2022/01/13 02:27:44;;;;;;;40.77;16.63;;;-13.20;99.90;;;;;;4976744;28;20208;-66
2022/01/13 02:30:12;;;;;;;41.70;16.83;;;-13.20;99.90;;;;;;4976952;28;20204;-65
2022/01/13 02:32:38;;;;;;;39.27;15.87;;;-13.20;99.90;;;;;;4976436;28;20212;-65
2022/01/13 02:35:06;;;;;;;39.73;16.97;;;-13.20;99.90;;;;;;4976777;28;20558;-66
2022/01/13 02:37:34;;;;;;;39.10;15.40;;;-13.20;99.90;;;;;;4976632;28;20561;-68
2022/01/13 02:40:01;;;;;;;42.40;16.13;;;-13.20;99.90;;;;;;4976800;28;20208;-67
2022/01/13 02:42:29;;;;;;;38.97;16.13;;;-13.20;99.90;;;;;;4995038;28;20245;-67
2022/01/13 02:45:02;;;;;;;35.97;15.07;;;-13.20;99.90;;;;;;4996047;28;20668;-66
2022/01/13 02:47:58;;;;;;;35.80;15.47;;;-13.20;99.90;;;;;;4995860;28;20200;-66
2022/01/13 02:50:24;;;;;;;38.40;15.77;;;-13.10;99.90;;;;;;4995682;28;20238;-65
2022/01/13 02:52:52;;;;;;;38.77;16.57;;;-13.10;99.90;;;;;;4995595;28;20238;-66
2022/01/13 02:55:19;;;;;;;32.83;15.33;;;-13.00;99.90;;;;;;4995717;28;20618;-65
2022/01/13 02:57:45;;;;;;;33.47;14.63;;;-13.10;99.90;;;;;;4995755;28;20215;-66
2022/01/13 03:00:16;;;;;;;33.07;14.13;;;-13.10;99.90;;;;;;4995262;28;20239;-66
2022/01/13 03:02:46;;;;;;;35.83;15.43;;;-13.00;99.90;;;;;;4995358;28;20192;-66
2022/01/13 03:05:14;;;;;;;32.97;14.73;;;-13.00;99.90;;;;;;4995374;28;20310;-67
2022/01/13 03:07:41;;;;;;;30.67;13.47;;;-13.00;99.90;;;;;;4995460;28;20207;-65
2022/01/13 03:10:11;;;;;;;32.67;14.47;;;-13.00;99.90;;;;;;4995094;28;20217;-66
2022/01/13 03:12:41;;;;;;;35.93;14.93;;;-13.00;99.90;;;;;;4995126;28;20218;-65
2022/01/13 03:15:09;;;;;;;26.77;12.60;;;-13.00;99.90;;;;;;4995005;28;20238;-65
2022/01/13 03:17:36;;;;;;;31.43;14.70;;;-13.00;99.90;;;;;;4995133;28;20211;-66
2022/01/13 03:20:03;;;;;;;34.30;14.83;;;-13.10;99.90;;;;;;4995149;28;20543;-67
2022/01/13 03:22:30;;;;;;;29.63;13.53;;;-13.10;99.90;;;;;;4994838;28;20215;-65
2022/01/13 03:24:57;;;;;;;32.10;12.93;;;-13.10;99.90;;;;;;4994828;28;20230;-67
2022/01/13 03:27:33;;;;;;;31.97;12.43;;;-13.10;99.90;;;;;;4994752;28;20242;-66
2022/01/13 03:30:02;;;;;;;29.57;12.93;;;-13.10;99.90;;;;;;4995146;28;20191;-66
2022/01/13 03:32:28;;;;;;;26.30;12.20;;;-13.10;99.90;;;;;;4994263;28;20211;-65
2022/01/13 03:34:55;;;;;;;34.33;12.67;;;-13.20;99.90;;;;;;4994109;28;20207;-65
2022/01/13 03:37:22;;;;;;;27.07;11.70;;;-13.20;99.90;;;;;;4994607;28;20215;-66
2022/01/13 03:39:49;;;;;;;25.77;11.37;;;-13.30;99.90;;;;;;4995013;28;20211;-66
2022/01/13 03:42:16;;;;;;;30.67;12.60;;;-13.20;99.90;;;;;;4993903;28;20222;-65
2022/01/13 03:44:44;;;;;;;26.83;11.23;;;-13.30;99.90;;;;;;4994633;28;20246;-66
2022/01/13 03:47:13;;;;;;;28.97;12.43;;;-13.30;99.90;;;;;;4994714;28;20208;-65
2022/01/13 03:49:40;;;;;;;23.87;11.17;;;-13.30;99.90;;;;;;4994285;28;20204;-65
2022/01/13 03:52:53;;;;;;;26.73;12.57;;;-13.40;99.90;;;;;;4994521;28;20735;-65
2022/01/13 03:56:19;;;;;;;27.57;12.00;;;-13.40;99.90;;;;;;4993884;28;20748;-66
2022/01/13 03:59:32;;;;;;;28.77;12.70;;;-13.40;99.90;;;;;;4975289;28;20207;-67
2022/01/13 04:02:08;;;;;;;28.03;13.47;;;-13.40;99.90;;;;;;4975275;28;20196;-65
2022/01/13 04:04:37;;;;;;;25.83;12.33;;;-13.40;99.90;;;;;;4975040;28;20588;-66
2022/01/13 04:07:10;;;;;;;29.23;13.50;;;-13.40;99.90;;;;;;4975121;28;20544;-65
2022/01/13 04:10:25;;;;;;;31.53;12.60;;;-13.40;99.90;;;;;;4974539;28;20201;-66
2022/01/13 04:12:52;;;;;;;34.73;13.57;;;-13.40;99.90;;;;;;4974935;28;20250;-66
2022/01/13 04:15:20;;;;;;;32.23;13.67;;;-13.40;99.90;;;;;;4974864;28;20219;-65
2022/01/13 04:17:49;;;;;;;24.60;12.00;;;-13.40;99.90;;;;;;4974825;28;20208;-66
2022/01/13 04:20:16;;;;;;;28.57;12.63;;;-13.40;99.90;;;;;;4974741;28;20405;-65
2022/01/13 04:22:43;;;;;;;30.00;13.40;;;-13.40;99.90;;;;;;4974772;28;20208;-67
2022/01/13 04:25:10;;;;;;;31.07;14.43;;;-13.40;99.90;;;;;;4975512;28;20685;-67
2022/01/13 04:27:42;;;;;;;31.07;14.00;;;-13.40;99.90;;;;;;4995173;28;20211;-66
2022/01/13 04:32:56;;;;;;;32.60;13.50;;;-13.60;99.90;;;;;;4994989;28;20274;-64
2022/01/13 04:35:23;;;;;;;31.07;13.90;;;-13.60;99.90;;;;;;4995497;28;20632;-65
2022/01/13 04:37:50;;;;;;;33.47;14.63;;;-13.70;99.90;;;;;;4994090;28;20597;-67
2022/01/13 04:40:16;;;;;;;34.77;12.77;;;-13.70;99.90;;;;;;4993483;28;20208;-66
2022/01/13 04:42:45;;;;;;;28.67;14.00;;;-13.60;99.90;;;;;;4992773;28;20210;-66
2022/01/13 04:45:12;;;;;;;34.07;13.33;;;-13.60;99.90;;;;;;4993396;28;20226;-67
2022/01/13 04:47:39;;;;;;;30.97;13.20;;;-13.60;99.90;;;;;;4993442;28;20222;-67
2022/01/13 04:50:08;;;;;;;30.67;12.70;;;-13.60;99.90;;;;;;4993527;28;20679;-65
2022/01/13 04:52:35;;;;;;;33.87;12.70;;;-13.60;99.90;;;;;;4993415;28;20598;-67
2022/01/13 04:55:09;;;;;;;32.87;15.20;;;-13.60;99.90;;;;;;4993273;28;20675;-66
2022/01/13 04:57:36;;;;;;;28.13;12.60;;;-13.60;99.90;;;;;;4993311;28;20210;-67
2022/01/13 05:00:04;;;;;;;26.83;12.47;;;-13.60;99.90;;;;;;4993078;28;20239;-67
2022/01/13 05:02:30;;;;;;;30.33;13.60;;;-13.60;99.90;;;;;;4992806;28;20262;-65
2022/01/13 05:04:57;;;;;;;31.53;13.40;;;-13.60;99.90;;;;;;4992836;28;20215;-67
2022/01/13 05:07:25;;;;;;;32.70;14.27;;;-13.60;99.90;;;;;;4993197;28;20698;-66
2022/01/13 05:09:52;;;;;;;33.43;13.77;;;-13.70;99.90;;;;;;4993320;28;20211;-68
2022/01/13 05:12:24;;;;;;;37.67;15.03;;;-13.70;99.90;;;;;;4993048;28;20210;-66
2022/01/13 05:14:55;;;;;;;39.83;15.27;;;-13.70;99.90;;;;;;4992518;28;20277;-66
2022/01/13 05:17:47;;;;;;;39.37;14.93;;;-13.70;99.90;;;;;;4992961;28;20202;-68
2022/01/13 05:20:17;;;;;;;39.23;15.90;;;-13.70;99.90;;;;;;4993207;28;20739;-66
2022/01/13 05:22:45;;;;;;;38.53;16.10;;;-13.80;99.90;;;;;;4993016;28;20187;-67
2022/01/13 05:25:13;;;;;;;40.00;16.27;;;-13.80;99.90;;;;;;4992927;28;20326;-70
2022/01/13 05:27:39;;;;;;;44.07;18.13;;;-13.70;99.90;;;;;;4993178;28;20215;-65
2022/01/13 05:30:07;;;;;;;42.27;16.53;;;-13.70;99.90;;;;;;4992529;28;20208;-67
2022/01/13 05:32:34;;;;;;;43.97;17.30;;;-13.70;99.90;;;;;;4993060;28;20207;-66
2022/01/13 05:35:01;;;;;;;44.07;16.33;;;-13.70;99.90;;;;;;4992785;28;20199;-66
2022/01/13 05:37:28;;;;;;;40.67;17.37;;;-13.60;99.90;;;;;;4992006;28;20215;-67
2022/01/13 05:39:57;;;;;;;41.50;19.20;;;-13.60;99.90;;;;;;4992597;28;20302;-66
2022/01/13 05:42:23;;;;;;;41.93;16.17;;;-13.50;99.90;;;;;;4992967;28;20565;-66
2022/01/13 05:44:50;;;;;;;43.80;18.93;;;-13.50;99.90;;;;;;4992843;28;20223;-66
2022/01/13 05:47:17;;;;;;;39.00;17.10;;;-13.40;99.90;;;;;;4992429;28;20227;-68
2022/01/13 05:49:44;;;;;;;38.63;17.77;;;-13.30;99.90;;;;;;4992947;28;20207;-66
2022/01/13 05:52:13;;;;;;;42.80;17.53;;;-13.30;99.90;;;;;;4992604;28;20215;-67
2022/01/13 05:54:41;;;;;;;44.50;17.07;;;-13.20;99.90;;;;;;4992093;28;20207;-66
2022/01/13 05:57:09;;;;;;;42.67;18.43;;;-13.10;99.90;;;;;;4992711;28;20278;-66
2022/01/13 05:59:36;;;;;;;47.97;19.90;;;-13.00;99.90;;;;;;4992119;28;20239;-66
2022/01/13 06:02:05;;;;;;;44.57;19.60;;;-13.00;99.90;;;;;;4991967;28;20227;-65
2022/01/13 06:04:32;;;;;;;44.57;18.77;;;-12.90;99.90;;;;;;4991720;28;20234;-65
2022/01/13 06:07:00;;;;;;;41.13;18.73;;;-12.80;99.90;;;;;;4992377;28;20207;-67
2022/01/13 06:09:27;;;;;;;44.03;18.40;;;-12.80;99.90;;;;;;4992050;28;20200;-67
2022/01/13 06:11:57;;;;;;;44.13;17.83;;;-12.70;99.90;;;;;;4992315;28;20206;-67
2022/01/13 06:14:26;;;;;;;46.93;19.33;;;-12.70;99.90;;;;;;4992439;28;20238;-66
2022/01/13 06:16:52;;;;;;;51.70;19.13;;;-12.70;99.90;;;;;;4992429;28;20208;-66
2022/01/13 06:19:19;;;;;;;51.20;18.97;;;-12.60;99.90;;;;;;4992401;28;20213;-67
2022/01/13 06:21:46;;;;;;;51.77;21.87;;;-12.50;99.90;;;;;;4992358;28;20214;-66
2022/01/13 06:24:13;;;;;;;52.33;23.27;;;-12.40;99.90;;;;;;4992110;28;20238;-66
2022/01/13 06:26:40;;;;;;;51.60;21.73;;;-12.40;99.90;;;;;;4992428;28;20310;-67
2022/01/13 06:29:07;;;;;;;51.30;21.13;;;-12.30;99.90;;;;;;4991958;28;20207;-66
2022/01/13 06:31:35;;;;;;;55.33;21.97;;;-12.20;99.90;;;;;;4991931;28;20200;-66
2022/01/13 06:34:02;;;;;;;52.57;21.77;;;-12.10;99.90;;;;;;4992377;28;20594;-67
2022/01/13 06:36:31;;;;;;;52.90;20.83;;;-12.00;99.90;;;;;;4992398;28;20318;-65
2022/01/13 06:38:58;;;;;;;52.90;22.20;;;-11.90;99.90;;;;;;4991303;28;20207;-67
2022/01/13 06:41:25;;;;;;;54.80;22.73;;;-11.90;99.90;;;;;;4992349;28;20215;-67
2022/01/13 06:43:52;;;;;;;48.73;21.03;;;-11.70;99.90;;;;;;4991557;28;20786;-67
2022/01/13 06:46:19;;;;;;;49.63;21.17;;;-11.60;99.90;;;;;;4991527;28;20652;-65
2022/01/13 06:48:47;;;;;;;51.03;21.50;;;-11.50;99.90;;;;;;4991089;28;20227;-66
2022/01/13 06:51:14;;;;;;;49.93;21.67;;;-11.40;99.90;;;;;;4991368;28;20649;-66
2022/01/13 06:53:40;;;;;;;49.23;20.73;;;-11.30;99.90;;;;;;4991591;28;20207;-67
2022/01/13 06:56:07;;;;;;;52.30;22.17;;;-11.10;99.90;;;;;;4991340;28;20199;-68
2022/01/13 06:58:34;;;;;;;53.50;21.70;;;-11.00;99.90;;;;;;4992238;28;20203;-67
2022/01/13 07:01:01;;;;;;;46.43;22.17;;;-10.90;99.90;;;;;;4991427;28;20742;-68
2022/01/13 07:03:28;;;;;;;49.17;20.93;;;-10.80;99.90;;;;;;4990473;28;20207;-68
2022/01/13 07:05:56;;;;;;;56.53;23.00;;;-10.80;99.90;;;;;;4991749;28;20223;-67
2022/01/13 07:08:23;;;;;;;64.00;24.40;;;-10.70;99.90;;;;;;4994595;28;20742;-66
2022/01/13 07:10:50;;;;;;;49.43;22.43;;;-10.60;99.90;;;;;;4995728;28;20215;-68
2022/01/13 07:13:17;;;;;;;47.80;22.10;;;-10.50;99.90;;;;;;4995602;28;20725;-68
2022/01/13 07:15:46;;;;;;;55.77;22.93;;;-10.30;99.90;;;;;;4995189;28;20227;-69
2022/01/13 07:18:13;;;;;;;48.93;21.63;;;-10.20;99.90;;;;;;4996422;28;20195;-69
2022/01/13 07:20:43;;;;;;;53.17;21.97;;;-10.10;99.90;;;;;;4996001;28;20557;-70
2022/01/13 07:23:11;;;;;;;50.07;22.10;;;-10.00;99.90;;;;;;4994016;28;20250;-65
2022/01/13 07:25:38;;;;;;;50.87;22.00;;;-9.80;99.90;;;;;;4995073;28;20708;-69
2022/01/13 07:28:06;;;;;;;44.80;20.33;;;-9.60;99.90;;;;;;4995028;28;20245;-68
2022/01/13 07:30:33;;;;;;;52.30;22.03;;;-9.50;99.90;;;;;;4994916;28;20270;-67
2022/01/13 07:33:00;;;;;;;50.13;20.93;;;-9.40;99.90;;;;;;4994593;28;20319;-69
2022/01/13 07:35:27;;;;;;;45.97;20.03;;;-9.30;99.90;;;;;;4994758;28;20195;-69
2022/01/13 07:37:54;;;;;;;48.97;20.87;;;-9.10;99.90;;;;;;4994131;28;20317;-69
2022/01/13 07:40:22;;;;;;;45.30;21.20;;;-9.00;99.90;;;;;;4995190;28;20203;-70
2022/01/13 07:42:49;;;;;;;48.43;22.17;;;-8.90;99.90;;;;;;4994918;28;20222;-67
2022/01/13 07:45:18;;;;;;;51.17;23.43;;;-8.80;99.90;;;;;;4995205;28;20247;-67
2022/01/13 07:47:45;;;;;;;52.13;23.50;;;-8.70;99.90;;;;;;4994892;28;20657;-66
2022/01/13 07:50:14;;;;;;;56.07;24.40;;;-8.60;99.90;;;;;;4995032;28;20203;-68
2022/01/13 07:52:41;;;;;;;56.13;24.33;;;-8.50;99.90;;;;;;4994766;28;20568;-67
2022/01/13 07:55:09;;;;;;;54.23;24.53;;;-8.40;99.90;;;;;;4994504;28;20209;-67
2022/01/13 07:57:38;;;;;;;54.23;23.73;;;-8.30;99.90;;;;;;4994539;28;20218;-67
2022/01/13 08:00:08;;;;;;;50.30;24.43;;;-8.30;99.90;;;;;;4993942;28;20626;-66
2022/01/13 08:02:35;;;;;;;53.80;24.90;;;-8.20;99.90;;;;;;4993877;28;20222;-68
2022/01/13 08:05:02;;;;;;;50.53;24.20;;;-8.10;99.90;;;;;;4994307;28;20235;-66
2022/01/13 08:07:29;;;;;;;52.23;23.57;;;-8.00;99.90;;;;;;4994497;28;20207;-68
2022/01/13 08:09:56;;;;;;;50.43;24.03;;;-8.00;99.90;;;;;;4993809;28;20203;-66
2022/01/13 08:12:23;;;;;;;51.00;23.73;;;-8.00;99.90;;;;;;5013507;28;20207;-66
2022/01/13 08:14:51;;;;;;;49.23;22.60;;;-7.90;99.90;;;;;;5013622;28;20206;-68
2022/01/13 08:20:02;;;;;;;49.27;24.03;;;-7.80;99.90;;;;;;4993386;28;20715;-66
2022/01/13 08:22:28;;;;;;;48.07;23.87;;;-7.70;99.90;;;;;;4993452;28;20219;-68
2022/01/13 08:24:55;;;;;;;53.90;24.97;;;-7.60;99.90;;;;;;4993339;28;20238;-66
2022/01/13 08:27:22;;;;;;;49.23;24.73;;;-7.50;99.90;;;;;;4993589;28;20209;-66
2022/01/13 08:29:49;;;;;;;50.30;24.60;;;-7.50;99.90;;;;;;4993568;28;20687;-67
2022/01/13 08:32:18;;;;;;;56.50;27.20;;;-7.50;99.90;;;;;;4992748;28;20219;-67
2022/01/13 08:34:46;;;;;;;56.37;27.03;;;-7.40;99.90;;;;;;4992955;28;20223;-66
2022/01/13 08:37:12;;;;;;;60.10;28.03;;;-7.30;99.90;;;;;;4993183;28;20211;-69
2022/01/13 08:39:44;;;;;;;53.67;25.67;;;-7.20;99.90;;;;;;4993293;28;20207;-69
2022/01/13 08:42:12;;;;;;;52.43;25.50;;;-7.10;99.90;;;;;;4993275;28;20478;-70
2022/01/13 08:44:39;;;;;;;55.93;27.60;;;-7.10;99.90;;;;;;4993064;28;20204;-70
2022/01/13 08:47:06;;;;;;;52.97;26.33;;;-7.00;99.90;;;;;;4992941;28;20199;-68
2022/01/13 08:49:36;;;;;;;49.40;23.80;;;-6.90;99.90;;;;;;4993014;28;20286;-67
2022/01/13 08:52:04;;;;;;;52.20;25.03;;;-6.80;99.90;;;;;;4993079;28;20306;-70
2022/01/13 08:54:30;;;;;;;53.70;25.17;;;-6.70;99.90;;;;;;4993106;28;20207;-69
2022/01/13 08:56:58;;;;;;;48.53;23.73;;;-6.60;99.90;;;;;;4993180;28;20207;-67
2022/01/13 08:59:25;;;;;;;58.20;26.67;;;-6.60;99.90;;;;;;4992915;28;20231;-66
2022/01/13 09:01:52;;;;;;;57.70;27.37;;;-6.50;99.90;;;;;;4992918;28;20200;-65
2022/01/13 09:04:18;;;;;;;61.40;27.83;;;-6.50;99.90;;;;;;4993087;28;20215;-68
2022/01/13 09:06:46;;;;;;;53.67;26.70;;;-6.40;99.90;;;;;;4992801;28;20227;-68
2022/01/13 09:09:14;;;;;;;62.13;27.73;;;-6.30;99.90;;;;;;4992808;28;20199;-67
2022/01/13 09:11:41;;;;;;;53.03;26.43;;;-6.20;99.90;;;;;;4992240;28;20210;-69
2022/01/13 09:14:08;;;;;;;54.43;26.53;;;-6.20;99.90;;;;;;4992756;28;20207;-68
2022/01/13 09:16:41;;;;;;;59.70;26.63;;;-6.10;99.90;;;;;;4992642;28;20203;-67
2022/01/13 09:19:09;;;;;;;54.07;26.20;;;-6.10;99.90;;;;;;4992925;28;20195;-69
2022/01/13 09:21:38;;;;;;;58.80;27.47;;;-6.00;99.90;;;;;;4992629;28;20199;-69
2022/01/13 09:24:08;;;;;;;58.13;26.13;;;-6.00;99.90;;;;;;4992597;28;20207;-66
2022/01/13 09:26:35;;;;;;;56.57;26.43;;;-5.90;99.90;;;;;;4992324;28;20215;-67
2022/01/13 09:29:02;;;;;;;58.37;26.33;;;-5.80;99.90;;;;;;4992503;28;20208;-67
2022/01/13 09:31:29;;;;;;;56.77;25.97;;;-5.80;99.90;;;;;;4992654;28;20726;-69
2022/01/13 09:33:56;;;;;;;53.70;26.00;;;-5.70;99.90;;;;;;4991420;28;20566;-67
2022/01/13 09:36:23;;;;;;;57.60;27.70;;;-5.70;99.90;;;;;;4992024;28;20568;-68
2022/01/13 09:38:50;;;;;;;55.30;26.43;;;-5.70;99.90;;;;;;4992211;28;20287;-69
2022/01/13 09:41:19;;;;;;;55.77;26.63;;;-5.60;99.90;;;;;;4992291;28;20207;-69
2022/01/13 09:43:46;;;;;;;56.77;26.53;;;-5.60;99.90;;;;;;4990982;28;20683;-68
2022/01/13 09:46:13;;;;;;;56.70;26.33;;;-5.50;99.90;;;;;;4992239;28;20231;-69
2022/01/13 09:48:40;;;;;;;55.20;26.67;;;-5.40;99.90;;;;;;4991722;28;20579;-67
2022/01/13 09:51:07;;;;;;;58.23;25.90;;;-5.30;99.90;;;;;;4992243;28;20273;-68
2022/01/13 09:53:34;;;;;;;53.63;26.50;;;-5.20;99.90;;;;;;4991793;28;20213;-69
2022/01/13 09:56:02;;;;;;;54.27;26.67;;;-5.10;99.90;;;;;;4992115;28;20203;-70
2022/01/13 09:58:30;;;;;;;61.40;27.67;;;-5.00;99.90;;;;;;4991831;28;20215;-68
2022/01/13 10:00:58;;;;;;;59.10;27.57;;;-5.00;99.90;;;;;;4991550;28;20238;-69
2022/01/13 10:03:27;;;;;;;58.60;27.80;;;-4.90;99.90;;;;;;4991999;28;20203;-67
2022/01/13 10:05:55;;;;;;;58.47;27.87;;;-4.80;99.90;;;;;;4991360;28;20219;-67
2022/01/13 10:08:23;;;;;;;59.50;29.00;;;-4.70;99.90;;;;;;4991987;28;20583;-69
2022/01/13 10:10:50;;;;;;;57.73;28.70;;;-4.70;99.90;;;;;;4992032;28;20203;-68
2022/01/13 10:13:29;;;;;;;60.90;27.97;;;-4.60;99.90;;;;;;4991789;28;20298;-68
2022/01/13 10:18:53;;;;;;;61.20;27.90;;;-4.50;99.90;;;;;;4970095;28;20221;-68
2022/01/13 10:21:21;;;;;;;56.33;27.50;;;-4.40;99.90;;;;;;4986297;28;20211;-67
2022/01/13 10:24:06;;;;;;;65.30;29.30;;;-4.30;99.90;;;;;;4991808;28;20211;-69
2022/01/13 10:26:34;;;;;;;59.27;28.00;;;-4.30;99.90;;;;;;4991356;28;20278;-68
2022/01/13 10:29:01;;;;;;;58.53;28.27;;;-4.20;99.90;;;;;;4991090;28;20210;-69
2022/01/13 10:31:47;;;;;;;56.93;27.47;;;-4.10;99.90;;;;;;4991422;28;20231;-69
2022/01/13 10:34:21;;;;;;;54.97;27.07;;;-4.00;99.90;;;;;;4991756;28;20207;-67
2022/01/13 10:37:02;;;;;;;60.00;28.17;;;-4.00;99.90;;;;;;4991360;28;20191;-68
2022/01/13 10:39:52;;;;;;;62.27;29.70;;;-3.90;99.90;;;;;;4991226;28;20199;-69
2022/01/13 10:45:26;;;;;;;64.93;30.33;;;-3.70;99.90;;;;;;4994998;28;20791;-67
2022/01/13 10:47:58;;;;;;;64.03;28.97;;;-3.60;99.90;;;;;;4994270;28;20579;-69
2022/01/13 10:50:29;;;;;;;59.20;29.80;;;-3.60;99.90;;;;;;4994569;28;20206;-68
2022/01/13 10:53:03;;;;;;;58.60;28.30;;;-3.50;99.90;;;;;;4995197;28;20195;-70
2022/01/13 10:55:31;;;;;;;59.77;29.80;;;-3.40;99.90;;;;;;4994881;28;20234;-67
2022/01/13 10:57:58;;;;;;;60.67;29.13;;;-3.30;99.90;;;;;;4994829;28;20550;-68
2022/01/13 11:00:30;;;;;;;60.50;28.93;;;-3.20;99.90;;;;;;4994532;28;20602;-69
2022/01/13 11:03:04;;;;;;;59.27;28.17;;;-3.10;99.90;;;;;;4995070;28;20281;-69
2022/01/13 11:05:32;;;;;;;64.87;29.73;;;-3.10;99.90;;;;;;4995034;28;20210;-67
2022/01/13 11:08:01;;;;;;;56.20;27.90;;;-3.00;99.90;;;;;;4995031;28;20218;-69
2022/01/13 11:10:28;;;;;;;61.03;30.23;;;-3.00;99.90;;;;;;4994283;28;20211;-68
2022/01/13 11:12:58;;;;;;;64.27;30.40;;;-2.90;99.90;;;;;;4994830;28;20241;-67
2022/01/13 11:15:27;;;;;;;61.00;29.93;;;-2.80;99.90;;;;;;4994377;28;20196;-70
2022/01/13 11:17:57;;;;;;;63.60;30.00;;;-2.80;99.90;;;;;;4994829;28;20294;-67
2022/01/13 11:20:27;;;;;;;61.57;29.47;;;-2.70;99.90;;;;;;4994945;28;20192;-68
2022/01/13 11:22:56;;;;;;;61.33;30.40;;;-2.70;99.90;;;;;;4995146;28;20231;-68
2022/01/13 11:25:26;;;;;;;59.53;29.77;;;-2.60;99.90;;;;;;4994182;28;20573;-67
2022/01/13 11:27:55;;;;;;;62.33;29.60;;;-2.60;99.90;;;;;;4994366;28;20598;-68
2022/01/13 11:30:24;;;;;;;60.60;30.37;;;-2.60;99.90;;;;;;4994759;28;20656;-67
2022/01/13 11:32:51;;;;;;;57.50;29.47;;;-2.60;99.90;;;;;;4994825;28;20568;-68
2022/01/13 11:35:22;;;;;;;59.63;28.93;;;-2.50;99.90;;;;;;4994769;28;20214;-69
2022/01/13 11:37:51;;;;;;;60.17;29.17;;;-2.50;99.90;;;;;;4994753;28;20235;-70
2022/01/13 11:40:39;;;;;;;65.70;31.73;;;-2.50;99.90;;;;;;4994315;28;20207;-70
2022/01/13 11:43:09;;;;;;;66.70;30.10;;;-2.50;99.90;;;;;;4993642;28;20204;-69
2022/01/13 11:45:40;;;;;;;63.50;30.47;;;-2.40;99.90;;;;;;4994211;28;20668;-68
2022/01/13 11:48:16;;;;;;;67.73;31.43;;;-2.40;99.90;;;;;;4994596;28;20564;-68
2022/01/13 11:50:47;;;;;;;65.37;29.93;;;-2.40;99.90;;;;;;4993878;28;20670;-69
2022/01/13 11:53:40;;;;;;;64.67;31.03;;;-2.40;99.90;;;;;;4993634;28;20199;-69
2022/01/13 11:56:09;;;;;;;66.07;30.37;;;-2.30;99.90;;;;;;4990883;28;20209;-67
2022/01/13 11:58:42;;;;;;;60.27;30.07;;;-2.30;99.90;;;;;;4994189;28;20211;-70
2022/01/13 12:01:12;;;;;;;69.43;31.47;;;-2.30;99.90;;;;;;4993935;28;20719;-68
2022/01/13 12:03:42;;;;;;;60.17;28.77;;;-2.20;99.90;;;;;;4993630;28;20219;-68
2022/01/13 12:06:29;;;;;;;62.37;29.43;;;-2.20;99.90;;;;;;4983183;28;20212;-69
2022/01/13 12:08:58;;;;;;;64.87;29.83;;;-2.20;99.90;;;;;;4974373;28;20704;-69
2022/01/13 12:11:50;;;;;;;67.10;29.33;;;-2.10;99.90;;;;;;4983427;28;20231;-70
2022/01/13 12:14:44;;;;;;;64.80;31.03;;;-2.00;99.90;;;;;;4993903;28;20547;-69
2022/01/13 12:17:22;;;;;;;67.73;31.23;;;-2.00;99.90;;;;;;4993823;28;20191;-69
2022/01/13 12:19:51;;;;;;;60.77;29.20;;;-2.00;99.90;;;;;;4993956;28;20663;-70
2022/01/13 12:22:38;;;;;;;65.07;30.87;;;-2.00;99.90;;;;;;4993355;28;20215;-69
2022/01/13 12:25:08;;;;;;;61.17;29.20;;;-2.00;99.90;;;;;;4982194;28;20218;-69
2022/01/13 12:27:46;;;;;;;64.20;30.33;;;-2.00;99.90;;;;;;4993332;28;20577;-70
2022/01/13 12:30:15;;;;;;;67.17;30.30;;;-2.00;99.90;;;;;;4992637;28;20203;-69
2022/01/13 12:32:46;;;;;;;60.87;28.73;;;-2.00;99.90;;;;;;4989721;28;20547;-68
2022/01/13 12:35:15;;;;;;;64.43;30.27;;;-2.00;99.90;;;;;;4987494;28;20261;-68
2022/01/13 12:37:42;;;;;;;61.47;29.27;;;-2.00;99.90;;;;;;4993493;28;20223;-67
2022/01/13 12:40:17;;;;;;;61.67;30.37;;;-1.90;99.90;;;;;;4993034;28;20234;-69
2022/01/13 12:42:52;;;;;;;63.03;28.97;;;-1.90;99.90;;;;;;4974668;28;20547;-70
2022/01/13 12:45:32;;;;;;;63.00;29.97;;;-2.00;99.90;;;;;;4974072;28;20195;-69
2022/01/13 12:48:02;;;;;;;63.23;29.77;;;-2.00;99.90;;;;;;4973872;28;20223;-68
2022/01/13 12:50:31;;;;;;;63.90;29.97;;;-2.00;99.90;;;;;;4974076;28;20262;-67
2022/01/13 12:53:07;;;;;;;63.97;29.30;;;-2.00;99.90;;;;;;4977565;28;20759;-68